Time;durP1;ratioP1;P1;durP2;ratioP2;P2;SDS_P1;SDS_P2;PMS_P1;PMS_P2;Temp;Humidity;BMP_temperature;BMP_pressure;BME280_temperature;BME280_humidity;BME280_pressure;Samples;Min_cycle;Max_cycle;Signal;HPM_P1;HPM_P2
2021/05/03 00:00:28;;;;;;;34.27;11.85;;;;;;;17.93;61.79;100782.81;1750581;82;21204;-45
2021/05/03 00:02:56;;;;;;;27.32;10.88;;;;;;;17.96;61.88;100786.59;1739020;81;21176;-48
2021/05/03 00:05:26;;;;;;;31.07;11.05;;;;;;;17.98;61.90;100788.67;1738556;82;21156;-48
2021/05/03 00:07:54;;;;;;;23.95;11.38;;;;;;;18.00;61.86;100795.57;1737683;82;21121;-48
2021/05/03 00:10:24;;;;;;;26.68;10.38;;;;;;;18.02;61.85;100796.34;1737613;82;21596;-47
2021/05/03 00:12:52;;;;;;;33.00;12.58;;;;;;;18.04;61.81;100796.26;1742913;82;21177;-47
2021/05/03 00:15:22;;;;;;;33.08;11.70;;;;;;;18.06;61.66;100791.77;1728664;82;21136;-47
2021/05/03 00:17:51;;;;;;;26.75;10.75;;;;;;;18.07;61.68;100796.11;1737833;82;21184;-47
2021/05/03 00:20:19;;;;;;;24.87;10.30;;;;;;;18.10;61.67;100790.67;1739002;82;21207;-47
2021/05/03 00:22:49;;;;;;;28.50;11.30;;;;;;;18.11;61.61;100780.54;1737591;82;21125;-48
2021/05/03 00:25:17;;;;;;;29.10;10.38;;;;;;;18.14;61.59;100776.41;1737541;82;21188;-47
2021/05/03 00:27:45;;;;;;;24.37;10.60;;;;;;;18.13;61.61;100772.09;1741368;82;21633;-49
2021/05/03 00:30:15;;;;;;;37.85;11.93;;;;;;;18.13;61.72;100764.19;1732329;82;21200;-45
2021/05/03 00:32:47;;;;;;;25.90;11.45;;;;;;;18.13;61.69;100761.56;1738341;82;21184;-54
2021/05/03 00:35:16;;;;;;;24.47;11.30;;;;;;;18.13;61.71;100768.14;1740562;82;21196;-50
2021/05/03 00:37:44;;;;;;;29.12;11.95;;;;;;;18.14;61.71;100775.09;1736422;82;21632;-51
2021/05/03 00:40:12;;;;;;;31.82;12.65;;;;;;;18.16;61.67;100782.45;1736356;82;21282;-48
2021/05/03 00:42:43;;;;;;;31.00;12.18;;;;;;;18.16;61.64;100774.55;1738901;82;21188;-48
2021/05/03 00:45:14;;;;;;;41.73;13.62;;;;;;;18.15;61.55;100767.59;1738895;82;21176;-47
2021/05/03 00:47:42;;;;;;;;;;;;;;;18.15;61.56;100767.14;1740891;82;21557;-47
2021/05/03 00:50:11;;;;;;;32.98;11.48;;;;;;;18.16;61.57;100774.55;1740439;82;20132;-46
2021/05/03 00:52:40;;;;;;;28.30;12.20;;;;;;;18.16;61.55;100770.59;1741435;82;21199;-49
2021/05/03 00:55:10;;;;;;;34.00;12.37;;;;;;;18.16;61.59;100767.50;1734227;82;21592;-50
2021/05/03 00:57:39;;;;;;;49.18;14.53;;;;;;;18.20;61.48;100765.55;1744752;82;21176;-45
2021/05/03 01:00:10;;;;;;;33.73;12.80;;;;;;;18.20;61.26;100755.02;1725687;82;21156;-48
2021/05/03 01:02:38;;;;;;;48.35;13.48;;;;;;;18.18;61.04;100742.39;1743761;81;21156;-47
2021/05/03 01:05:08;;;;;;;47.83;15.32;;;;;;;18.15;60.97;100730.72;1740649;82;21534;-49
2021/05/03 01:07:38;;;;;;;52.08;18.10;;;;;;;18.14;60.81;100732.50;1741833;82;21137;-47
2021/05/03 01:10:08;;;;;;;50.55;15.28;;;;;;;18.13;60.85;100736.54;1733360;82;21148;-50
2021/05/03 01:12:37;;;;;;;35.73;12.55;;;;;;;18.12;60.95;100741.41;1744957;82;21592;-47
2021/05/03 01:15:08;;;;;;;32.23;12.93;;;;;;;18.09;61.11;100743.77;1725600;82;21149;-50
2021/05/03 01:17:37;;;;;;;26.12;10.65;;;;;;;18.10;61.24;100737.55;1683899;84;21201;-50
2021/05/03 01:20:13;;;;;;;33.75;11.18;;;;;;;18.10;61.42;100743.27;1666986;85;21210;-49
2021/05/03 01:22:46;;;;;;;43.58;13.55;;;;;;;18.15;61.59;100746.53;1802239;79;23090;-51
2021/05/03 01:25:14;;;;;;;38.30;13.65;;;;;;;18.12;61.67;100759.37;1792800;80;21593;-49
2021/05/03 01:27:42;;;;;;;34.70;11.97;;;;;;;18.14;61.71;100755.34;1783960;80;21334;-45
2021/05/03 01:30:12;;;;;;;25.52;11.43;;;;;;;18.15;61.66;100747.39;1778969;80;21152;-51
2021/05/03 01:32:40;;;;;;;32.08;12.13;;;;;;;18.16;61.67;100741.63;1726902;83;21194;-46
2021/05/03 01:35:12;;;;;;;32.15;12.53;;;;;;;18.17;61.72;100747.30;1722450;83;21298;-46
2021/05/03 01:37:39;;;;;;;24.92;11.18;;;;;;;18.20;61.79;100747.12;1718172;83;21587;-46
2021/05/03 01:40:10;;;;;;;26.73;11.43;;;;;;;18.21;61.79;100747.52;1724429;83;21172;-52
2021/05/03 01:42:38;;;;;;;28.45;10.78;;;;;;;18.23;61.75;100750.92;1723696;83;21622;-46
2021/05/03 01:45:08;;;;;;;22.55;9.45;;;;;;;18.26;61.71;100753.41;1716257;83;21178;-50
2021/05/03 01:47:39;;;;;;;26.87;12.20;;;;;;;18.27;61.63;100754.63;1726142;83;21727;-46
2021/05/03 01:50:09;;;;;;;45.23;14.28;;;;;;;18.29;61.46;100743.55;1720261;83;21164;-46
2021/05/03 01:52:37;;;;;;;37.35;13.25;;;;;;;18.29;61.28;100749.27;1694758;83;21151;-48
2021/05/03 01:55:07;;;;;;;28.55;10.93;;;;;;;18.29;61.20;100758.49;1730112;83;21180;-48
2021/05/03 01:57:35;;;;;;;23.18;10.93;;;;;;;18.27;61.27;100759.05;1717403;83;21192;-45
2021/05/03 02:00:06;;;;;;;35.03;11.93;;;;;;;18.28;61.25;100750.22;1706942;83;21748;-49
2021/05/03 02:02:34;;;;;;;34.88;11.95;;;;;;;18.29;61.13;100745.32;1716634;83;21594;-49
2021/05/03 02:05:03;;;;;;;27.35;10.15;;;;;;;18.27;61.09;100732.70;1725539;83;21173;-48
2021/05/03 02:07:31;;;;;;;27.87;10.28;;;;;;;18.25;61.09;100739.38;1726726;83;21192;-48
2021/05/03 02:09:59;;;;;;;26.23;9.95;;;;;;;18.24;61.16;100751.28;1719974;83;21645;-46
2021/05/03 02:12:27;;;;;;;27.82;11.40;;;;;;;18.24;61.15;100744.70;1724320;83;21294;-49
2021/05/03 02:14:55;;;;;;;26.05;10.20;;;;;;;18.23;61.19;100734.66;1723397;83;21159;-46
2021/05/03 02:17:23;;;;;;;19.65;9.08;;;;;;;18.24;61.16;100742.07;1724110;83;21286;-51
2021/05/03 02:19:51;;;;;;;22.73;9.50;;;;;;;18.22;61.20;100763.69;1726073;83;21156;-49
2021/05/03 02:22:18;;;;;;;22.42;8.53;;;;;;;18.21;61.23;100812.91;1726383;82;21346;-48
2021/05/03 02:24:46;;;;;;;16.75;8.83;;;;;;;18.21;61.33;100806.77;1731639;83;21164;-48
2021/05/03 02:27:14;;;;;;;23.92;10.53;;;;;;;18.19;61.61;100791.52;1722385;83;21570;-46
2021/05/03 02:29:43;;;;;;;18.65;8.98;;;;;;;18.18;61.75;100783.22;1757408;81;21544;-50
2021/05/03 02:32:11;;;;;;;23.77;10.23;;;;;;;18.18;61.82;100788.03;1763334;81;21177;-47
2021/05/03 02:34:39;;;;;;;16.93;8.88;;;;;;;18.19;61.89;100796.79;1707644;84;21143;-50
2021/05/03 02:37:07;;;;;;;20.92;7.85;;;;;;;18.18;61.96;100795.06;1778364;80;21148;-49
2021/05/03 02:39:36;;;;;;;20.17;9.15;;;;;;;18.18;62.04;100780.13;1769674;81;21133;-48
2021/05/03 02:42:05;;;;;;;21.57;10.00;;;;;;;18.21;62.14;100759.37;1764365;81;21208;-46
2021/05/03 02:44:32;;;;;;;21.70;9.75;;;;;;;18.23;62.17;100760.14;1689342;84;21148;-48
2021/05/03 02:47:00;;;;;;;18.87;8.78;;;;;;;18.26;62.18;100760.81;1762896;81;21696;-48
2021/05/03 02:49:28;;;;;;;22.50;9.95;;;;;;;18.29;62.16;100765.08;1724894;82;21157;-46
2021/05/03 02:51:56;;;;;;;20.52;9.63;;;;;;;18.31;62.15;100775.06;1748353;82;21165;-49
2021/05/03 02:54:24;;;;;;;22.87;9.88;;;;;;;18.31;62.24;100806.22;1758501;81;21278;-51
2021/05/03 02:56:52;;;;;;;17.32;8.85;;;;;;;18.33;62.23;100803.49;1739806;82;21161;-46
2021/05/03 02:59:20;;;;;;;18.70;9.15;;;;;;;18.35;62.26;100793.27;1732564;82;21129;-49
2021/05/03 03:01:48;;;;;;;20.88;9.78;;;;;;;18.37;62.29;100799.77;1777065;81;21149;-46
2021/05/03 03:04:17;;;;;;;17.57;8.70;;;;;;;18.39;62.24;100804.48;1730240;82;21159;-49
2021/05/03 03:06:45;;;;;;;18.48;8.93;;;;;;;18.41;62.25;100797.34;1770355;80;21169;-50
2021/05/03 03:09:14;;;;;;;14.87;9.43;;;;;;;18.33;62.44;100801.72;1733898;82;21551;-47
2021/05/03 03:11:46;;;;;;;28.32;11.05;;;;;;;18.33;62.61;100800.86;1763182;80;21613;-47
2021/05/03 03:14:11;;;;;;;32.53;11.60;;;;;;;18.34;62.67;100799.95;1705719;84;21317;-49
2021/05/03 03:16:39;;;;;;;30.75;13.18;;;;;;;18.36;62.61;100774.38;1769897;81;21319;-46
2021/05/03 03:19:07;;;;;;;33.15;13.43;;;;;;;18.47;62.33;100781.25;1769871;81;21149;-46
2021/05/03 03:21:35;;;;;;;37.45;12.28;;;;;;;18.52;62.11;100784.04;1709162;84;21203;-48
2021/05/03 03:24:05;;;;;;;37.48;12.07;;;;;;;18.54;62.01;100778.68;1783235;80;21184;-46
2021/05/03 03:26:32;;;;;;;29.02;11.50;;;;;;;18.55;61.90;100787.81;1781364;80;21168;-48
2021/05/03 03:29:00;;;;;;;28.45;11.38;;;;;;;18.57;61.78;100818.03;1778737;80;21569;-48
2021/05/03 03:31:28;;;;;;;26.42;11.30;;;;;;;18.59;61.70;100835.92;1716991;83;21160;-45
2021/05/03 03:33:56;;;;;;;26.68;11.25;;;;;;;18.56;61.84;100819.83;1778258;80;21526;-48
2021/05/03 03:36:24;;;;;;;24.60;10.98;;;;;;;18.60;61.81;100815.24;1778779;80;21533;-51
2021/05/03 03:38:52;;;;;;;23.80;10.90;;;;;;;18.64;61.87;100819.41;1716938;83;21285;-45
2021/05/03 03:41:21;;;;;;;21.02;10.03;;;;;;;18.66;61.83;100818.86;1773092;80;21199;-48
2021/05/03 03:43:49;;;;;;;24.63;9.60;;;;;;;18.69;61.83;100809.48;1777138;80;21266;-49
2021/05/03 03:46:20;;;;;;;23.98;9.55;;;;;;;18.73;61.70;100815.44;1779992;80;21302;-48
2021/05/03 03:48:48;;;;;;;24.82;9.75;;;;;;;18.77;61.63;100815.19;1779313;80;21637;-52
2021/05/03 03:51:16;;;;;;;25.17;11.33;;;;;;;18.79;61.58;100792.23;1779140;80;21584;-51
2021/05/03 03:53:44;;;;;;;29.12;11.00;;;;;;;18.89;61.27;100800.02;1780303;80;21148;-49
2021/05/03 03:56:13;;;;;;;29.55;11.55;;;;;;;18.95;61.08;100803.63;1782780;80;21188;-48
2021/05/03 03:58:43;;;;;;;31.25;12.90;;;;;;;18.98;60.95;100816.63;1713657;83;21434;-49
2021/05/03 04:01:12;;;;;;;34.15;12.15;;;;;;;19.01;60.96;100816.48;1778120;80;21121;-48
2021/05/03 04:03:49;;;;;;;20.62;10.93;;;;;;;19.00;61.01;100812.61;1716847;83;21167;-46
2021/05/03 04:06:36;;;;;;;20.48;10.13;;;;;;;19.02;61.01;100819.48;1772870;80;21160;-49
2021/05/03 04:09:15;;;;;;;26.90;9.90;;;;;;;19.04;61.00;100820.24;1713252;83;21124;-50
2021/05/03 04:25:21;;;;;;;19.92;9.43;;;;;;;19.30;61.07;100830.22;1777866;80;21152;-47
2021/05/03 04:27:44;;;;;;;17.42;8.58;;;;;;;19.32;61.11;100832.30;1780745;80;21148;-47
2021/05/03 04:30:15;;;;;;;15.70;8.50;;;;;;;19.36;61.05;100825.94;1787114;80;21156;-46
2021/05/03 04:32:42;;;;;;;17.85;9.10;;;;;;;19.44;61.04;100824.17;1779717;80;21152;-45
2021/05/03 04:35:11;;;;;;;16.80;8.95;;;;;;;19.53;60.79;100826.76;1741537;82;21154;-48
2021/05/03 04:37:40;;;;;;;19.45;10.23;;;;;;;19.60;60.67;100830.77;1767978;80;21573;-47
2021/05/03 04:40:11;;;;;;;18.32;9.05;;;;;;;19.67;60.49;100834.73;1782964;80;21156;-45
2021/05/03 04:42:39;;;;;;;19.77;9.75;;;;;;;19.72;60.35;100831.38;1773218;80;21511;-45
2021/05/03 04:45:10;;;;;;;17.27;8.10;;;;;;;19.77;60.29;100833.25;1780460;80;21152;-46
2021/05/03 04:47:39;;;;;;;21.30;10.48;;;;;;;19.84;60.30;100829.33;1771096;80;21145;-45
2021/05/03 04:50:09;;;;;;;15.23;8.13;;;;;;;19.91;60.15;100829.33;1772543;80;21577;-47
2021/05/03 04:52:38;;;;;;;17.50;8.63;;;;;;;19.98;60.04;100829.36;1738092;82;21129;-51
2021/05/03 04:55:08;;;;;;;17.73;8.33;;;;;;;20.05;59.91;100814.86;1784046;80;21541;-49
2021/05/03 04:57:35;;;;;;;16.62;8.40;;;;;;;20.13;59.71;100820.53;1782171;80;21549;-48
2021/05/03 05:00:06;;;;;;;18.60;8.50;;;;;;;20.16;59.56;100816.37;1734287;82;21318;-46
2021/05/03 05:02:33;;;;;;;21.70;8.15;;;;;;;20.19;59.28;100809.59;1777359;80;21152;-46
2021/05/03 05:05:01;;;;;;;21.95;8.43;;;;;;;20.21;59.22;100802.46;1729378;82;21196;-46
2021/05/03 05:07:30;;;;;;;18.65;9.00;;;;;;;20.25;59.13;100801.33;1770941;80;21286;-46
2021/05/03 05:09:58;;;;;;;17.65;8.23;;;;;;;20.29;58.96;100800.20;1736946;82;21577;-46
2021/05/03 05:12:26;;;;;;;20.72;9.88;;;;;;;20.32;59.00;100805.28;1775163;80;21113;-50
2021/05/03 05:14:54;;;;;;;21.68;8.85;;;;;;;20.36;58.97;100816.53;1771122;80;21322;-50
2021/05/03 05:17:22;;;;;;;16.55;8.68;;;;;;;20.40;58.84;100830.80;1773913;80;21125;-49
2021/05/03 05:19:50;;;;;;;21.50;9.30;;;;;;;20.44;58.86;100830.98;1772236;80;21294;-48
2021/05/03 05:22:18;;;;;;;19.15;8.43;;;;;;;20.51;58.88;100837.58;1733736;82;21610;-45
2021/05/03 05:24:46;;;;;;;16.77;8.90;;;;;;;20.54;58.45;100834.77;1737594;81;21193;-49
2021/05/03 05:27:13;;;;;;;15.58;8.90;;;;;;;20.55;58.48;100833.80;1739802;82;21126;-46
2021/05/03 05:29:42;;;;;;;21.68;8.70;;;;;;;20.51;58.44;100833.62;1710179;83;21196;-50
2021/05/03 05:32:12;;;;;;;19.30;9.35;;;;;;;20.46;58.92;100834.39;1710361;83;21148;-48
2021/05/03 05:34:40;;;;;;;19.80;9.55;;;;;;;20.54;59.57;100826.83;1715677;83;21233;-50
2021/05/03 05:37:08;;;;;;;20.15;9.10;;;;;;;20.75;59.09;100828.62;1740746;82;21537;-46
2021/05/03 05:39:37;;;;;;;18.60;9.35;;;;;;;20.96;58.40;100824.14;1711132;83;21593;-45
2021/05/03 05:42:05;;;;;;;20.55;9.78;;;;;;;21.21;58.14;100819.95;1722680;83;21176;-46
2021/05/03 05:44:34;;;;;;;16.02;8.88;;;;;;;21.51;57.56;100823.27;1729795;83;21161;-47
2021/05/03 05:47:02;;;;;;;18.45;8.00;;;;;;;21.91;56.88;100826.81;1729844;83;21158;-48
2021/05/03 05:49:30;;;;;;;15.90;9.00;;;;;;;22.39;55.97;100824.30;1718586;83;21308;-50
2021/05/03 05:51:58;;;;;;;18.20;8.60;;;;;;;22.92;54.25;100828.49;1721656;83;21165;-50
2021/05/03 05:54:26;;;;;;;19.65;8.88;;;;;;;23.38;53.10;100834.02;1722873;83;21166;-48
2021/05/03 05:56:54;;;;;;;15.18;7.85;;;;;;;23.76;52.07;100832.00;1724243;83;21652;-46
2021/05/03 05:59:23;;;;;;;15.05;7.92;;;;;;;24.13;51.29;100832.78;1716487;83;21617;-49
2021/05/03 06:01:51;;;;;;;17.48;7.58;;;;;;;24.51;49.94;100837.77;1727330;83;21200;-48
2021/05/03 06:04:19;;;;;;;16.42;7.95;;;;;;;24.86;49.18;100843.86;1732247;82;21152;-46
2021/05/03 06:06:47;;;;;;;15.13;7.97;;;;;;;25.26;48.57;100858.35;1732386;82;21168;-46
2021/05/03 06:09:15;;;;;;;15.13;8.13;;;;;;;25.67;47.76;100861.17;1733665;82;21306;-49
2021/05/03 06:11:43;;;;;;;19.15;8.25;;;;;;;25.97;46.61;100868.90;1739969;81;21581;-47
2021/05/03 06:14:11;;;;;;;22.00;8.60;;;;;;;26.04;45.98;100858.09;1722686;83;21144;-48
2021/05/03 06:16:38;;;;;;;22.45;8.80;;;;;;;25.94;45.87;100858.51;1746735;82;21195;-46
2021/05/03 06:19:07;;;;;;;18.77;8.68;;;;;;;25.72;46.04;100860.28;1722414;83;21289;-47
2021/05/03 06:21:34;;;;;;;17.23;8.23;;;;;;;25.40;46.36;100868.73;1747767;81;21176;-46
2021/05/03 06:24:04;;;;;;;26.87;8.88;;;;;;;25.02;47.07;100882.45;1737853;82;21156;-51
2021/05/03 06:26:32;;;;;;;19.32;9.25;;;;;;;24.68;47.82;100899.84;1773298;81;21172;-47
2021/05/03 06:29:00;;;;;;;20.43;8.45;;;;;;;24.41;48.62;100937.88;1773867;81;21155;-48
2021/05/03 06:31:30;;;;;;;17.80;8.18;;;;;;;24.20;49.43;100981.56;1741537;82;21594;-46
2021/05/03 06:33:57;;;;;;;21.57;8.08;;;;;;;23.97;49.96;101000.50;1751240;80;21192;-47
2021/05/03 06:36:25;;;;;;;13.85;6.75;;;;;;;23.76;50.94;101004.72;1772082;81;21189;-48
2021/05/03 06:38:54;;;;;;;17.25;7.25;;;;;;;23.55;52.51;100981.05;1770227;81;21278;-49
2021/05/03 06:41:22;;;;;;;12.43;6.62;;;;;;;23.37;53.61;100988.98;1769877;80;21149;-49
2021/05/03 06:43:51;;;;;;;16.73;7.35;;;;;;;23.27;54.56;101011.80;1713740;82;21161;-49
2021/05/03 06:46:19;;;;;;;15.25;6.97;;;;;;;23.15;55.46;101014.84;1762532;81;21590;-46
2021/05/03 06:48:48;;;;;;;12.95;6.25;;;;;;;23.05;56.02;101007.63;1770293;81;21188;-47
2021/05/03 06:51:16;;;;;;;11.50;6.12;;;;;;;22.95;56.48;100991.97;1767897;81;21157;-48
2021/05/03 06:53:44;;;;;;;17.15;6.22;;;;;;;22.84;56.87;100948.06;1766278;81;21161;-49
2021/05/03 06:56:12;;;;;;;14.15;6.37;;;;;;;22.65;57.46;100904.25;1771982;81;21117;-46
2021/05/03 06:58:40;;;;;;;14.05;6.10;;;;;;;22.40;58.23;100868.40;1729405;82;21566;-49
2021/05/03 07:01:08;;;;;;;14.20;6.45;;;;;;;22.21;58.89;100879.91;1763122;81;21184;-47
2021/05/03 07:03:37;;;;;;;15.75;7.60;;;;;;;22.05;59.62;100912.34;1730212;82;21137;-48
2021/05/03 07:06:05;;;;;;;14.18;7.37;;;;;;;21.94;60.28;100949.78;1771599;81;21110;-47
2021/05/03 07:08:32;;;;;;;16.27;6.58;;;;;;;21.91;60.68;100978.65;1734200;82;21196;-47
2021/05/03 07:11:05;;;;;;;12.37;7.05;;;;;;;21.95;60.93;100974.84;1769350;81;21283;-49
2021/05/03 07:13:30;;;;;;;15.35;7.50;;;;;;;22.00;61.03;100980.71;1765464;81;21137;-49
2021/05/03 07:15:58;;;;;;;16.67;8.00;;;;;;;22.07;61.14;100999.72;1771796;81;21225;-46
2021/05/03 07:18:26;;;;;;;15.23;8.30;;;;;;;22.12;61.08;101003.75;1728749;82;21173;-49
2021/05/03 07:20:54;;;;;;;12.05;7.78;;;;;;;22.19;60.85;101005.06;1772778;81;21571;-46
2021/05/03 07:23:22;;;;;;;16.65;7.50;;;;;;;22.21;60.74;101005.81;1765964;80;21172;-46
2021/05/03 07:25:50;;;;;;;13.48;7.70;;;;;;;22.21;60.70;101004.95;1766267;81;21148;-46
2021/05/03 07:28:18;;;;;;;16.67;7.17;;;;;;;22.20;60.77;101020.00;1756418;81;21121;-46
2021/05/03 07:30:46;;;;;;;10.23;6.70;;;;;;;22.20;60.91;101017.35;1729609;82;21165;-48
2021/05/03 07:33:14;;;;;;;14.05;6.45;;;;;;;22.20;61.04;101018.67;1726229;82;21547;-47
2021/05/03 07:35:43;;;;;;;12.78;6.67;;;;;;;22.18;61.30;101019.25;1771329;81;21153;-45
2021/05/03 07:38:11;;;;;;;19.85;8.80;;;;;;;22.10;61.76;101017.58;1778495;81;21165;-48
2021/05/03 07:40:39;;;;;;;16.75;7.35;;;;;;;22.09;62.01;101011.06;1741923;82;21153;-47
2021/05/03 07:43:07;;;;;;;16.30;10.75;;;;;;;22.08;62.26;101010.67;1771983;81;21157;-46
2021/05/03 07:45:35;;;;;;;16.25;9.45;;;;;;;22.05;62.49;101007.74;1707771;84;21147;-49
2021/05/03 07:48:04;;;;;;;16.67;9.63;;;;;;;22.06;62.65;101001.51;1766922;81;21180;-46
2021/05/03 07:50:35;;;;;;;12.85;8.35;;;;;;;22.08;62.74;100994.30;1766227;81;21172;-45
2021/05/03 07:53:05;;;;;;;18.75;9.28;;;;;;;22.07;62.49;100989.94;1765638;81;22332;-45
2021/05/03 07:55:34;;;;;;;11.12;7.00;;;;;;;22.07;62.53;100987.29;1721684;82;21134;-45
2021/05/03 07:58:02;;;;;;;14.47;6.53;;;;;;;22.07;62.63;100991.27;1725725;82;21340;-49
2021/05/03 08:00:32;;;;;;;13.98;6.87;;;;;;;22.07;62.60;100989.12;1728757;82;21573;-49
2021/05/03 08:03:01;;;;;;;12.40;6.78;;;;;;;22.02;62.54;100979.28;1778929;81;21144;-47
2021/05/03 08:05:29;;;;;;;10.63;5.55;;;;;;;21.97;62.40;100984.87;1727913;82;21170;-46
2021/05/03 08:07:57;;;;;;;10.38;5.87;;;;;;;21.93;61.83;100978.57;1772199;81;21585;-49
2021/05/03 08:10:25;;;;;;;9.73;5.37;;;;;;;21.85;61.50;100986.99;1769314;81;21147;-49
2021/05/03 08:12:53;;;;;;;13.32;6.22;;;;;;;21.76;61.43;100982.27;1765440;81;21157;-47
2021/05/03 08:15:23;;;;;;;9.45;6.60;;;;;;;21.72;61.66;100983.42;1741863;82;21165;-48
2021/05/03 08:17:52;;;;;;;14.17;5.70;;;;;;;21.71;61.82;100978.59;1757307;81;21307;-46
2021/05/03 08:20:22;;;;;;;10.28;5.65;;;;;;;21.73;61.68;100986.42;1734712;82;21311;-45
2021/05/03 08:22:50;;;;;;;11.43;4.90;;;;;;;21.68;61.69;100988.51;1773304;80;21708;-46
2021/05/03 08:25:18;;;;;;;12.85;5.45;;;;;;;21.62;61.93;100992.87;1778049;80;21295;-46
2021/05/03 08:27:45;;;;;;;11.70;5.62;;;;;;;21.59;62.15;101006.33;1777316;80;21585;-47
2021/05/03 08:30:16;;;;;;;9.60;4.92;;;;;;;21.53;62.42;100999.63;1773229;80;21277;-48
2021/05/03 08:32:45;;;;;;;9.43;5.40;;;;;;;21.50;62.64;101001.59;1734519;82;21152;-50
2021/05/03 08:35:13;;;;;;;7.83;4.45;;;;;;;21.49;62.83;101010.50;1738913;82;21156;-50
2021/05/03 08:37:41;;;;;;;8.68;4.70;;;;;;;21.47;62.96;101008.42;1733189;82;21740;-48
2021/05/03 08:40:12;;;;;;;14.50;5.72;;;;;;;21.46;62.91;101005.38;1770415;80;21144;-47
2021/05/03 08:42:41;;;;;;;6.80;4.27;;;;;;;21.46;63.07;100996.12;1748049;80;21176;-52
2021/05/03 08:45:11;;;;;;;6.85;4.15;;;;;;;21.49;62.94;100991.97;1764711;80;21113;-46
2021/05/03 08:47:41;;;;;;;8.93;4.65;;;;;;;21.46;62.88;100993.00;1784963;80;21121;-50
2021/05/03 08:50:16;;;;;;;6.75;4.60;;;;;;;21.47;62.80;100992.07;1780742;80;21185;-46
2021/05/03 08:52:47;;;;;;;8.90;4.35;;;;;;;21.48;62.80;100997.73;1776049;80;21140;-50
2021/05/03 08:55:16;;;;;;;6.95;3.83;;;;;;;21.52;62.84;100997.05;1774890;80;21156;-48
2021/05/03 08:57:44;;;;;;;6.20;3.85;;;;;;;21.57;62.72;100998.48;1775703;80;21310;-48
2021/05/03 09:00:15;;;;;;;10.32;4.20;;;;;;;21.68;62.42;101003.08;1777955;80;21277;-46
2021/05/03 09:02:45;;;;;;;5.28;4.00;;;;;;;21.70;62.41;101003.36;1742630;82;21181;-46
2021/05/03 09:05:14;;;;;;;9.05;4.85;;;;;;;21.74;62.46;101008.02;1722876;82;21173;-46
2021/05/03 09:07:49;;;;;;;6.03;4.22;;;;;;;21.72;62.50;101013.38;1725265;82;21135;-49
2021/05/03 09:10:20;;;;;;;7.30;4.10;;;;;;;21.71;62.61;101027.59;1781855;80;21163;-48
2021/05/03 09:12:49;;;;;;;8.05;3.85;;;;;;;21.69;62.41;101028.62;1687923;85;21200;-48
2021/05/03 09:15:24;;;;;;;7.53;4.20;;;;;;;21.71;62.18;101022.30;1664828;86;21178;-46
2021/05/03 09:17:52;;;;;;;6.30;3.80;;;;;;;21.71;62.08;101005.55;1629648;88;21161;-49
2021/05/03 09:20:22;;;;;;;8.83;4.05;;;;;;;21.76;61.86;100999.49;1660635;86;21185;-50
2021/05/03 09:23:04;;;;;;;7.62;4.10;;;;;;;21.75;61.73;100997.78;1661999;86;21181;-46
2021/05/03 09:25:39;;;;;;;6.97;4.67;;;;;;;21.75;61.63;100983.20;1803202;79;22979;-45
2021/05/03 09:28:17;;;;;;;6.67;4.22;;;;;;;21.66;61.80;100972.72;1705131;83;21593;-46
2021/05/03 09:30:50;;;;;;;7.10;4.22;;;;;;;21.64;61.85;100973.77;1706790;84;21204;-48
2021/05/03 09:33:28;;;;;;;8.05;4.37;;;;;;;21.60;61.98;100968.28;1676326;85;21149;-46
2021/05/03 09:36:05;;;;;;;7.97;4.65;;;;;;;21.55;62.05;100975.69;1717288;83;21196;-50
2021/05/03 09:38:46;;;;;;;9.73;4.22;;;;;;;21.59;62.17;100983.81;1810393;79;22848;-48
2021/05/03 09:41:21;;;;;;;9.78;4.90;;;;;;;21.56;62.21;100984.00;1776936;80;21561;-48
2021/05/03 09:43:55;;;;;;;9.63;4.55;;;;;;;21.59;62.17;100973.22;1740996;82;21155;-46
2021/05/03 09:46:38;;;;;;;8.03;4.75;;;;;;;21.64;62.20;100977.73;1741350;82;21191;-50
2021/05/03 09:49:18;;;;;;;7.78;4.28;;;;;;;21.72;62.28;100975.47;1741281;82;21150;-48
2021/05/03 09:51:57;;;;;;;8.48;3.58;;;;;;;21.82;62.24;100975.29;1741402;82;21127;-48
2021/05/03 09:54:28;;;;;;;6.00;3.55;;;;;;;21.94;62.07;100965.22;1741288;82;21155;-49
2021/05/03 09:57:06;;;;;;;8.05;2.77;;;;;;;22.09;59.57;100954.91;1741366;82;21135;-48
2021/05/03 09:59:47;;;;;;;3.67;2.10;;;;;;;22.22;58.13;100961.11;1737693;82;21138;-50
2021/05/03 10:02:27;;;;;;;2.95;1.85;;;;;;;22.33;56.71;100959.93;1743637;82;21124;-48
2021/05/03 10:07:51;;;;;;;3.58;2.05;;;;;;;22.56;55.71;100956.58;1771575;79;23404;-45
2021/05/03 10:10:30;;;;;;;2.80;1.82;;;;;;;22.59;55.72;100966.14;1737595;82;21283;-45
2021/05/03 10:12:52;;;;;;;7.75;1.80;;;;;;;22.65;55.67;100971.88;1731135;80;21573;-45
2021/05/03 10:15:20;;;;;;;2.35;1.75;;;;;;;22.73;55.91;100974.50;1740461;82;21576;-48
2021/05/03 10:17:48;;;;;;;6.17;2.40;;;;;;;22.79;56.06;100977.59;1737943;82;21280;-48
2021/05/03 10:20:19;;;;;;;4.97;2.22;;;;;;;22.89;56.08;100968.51;1716356;82;21135;-46
2021/05/03 10:22:53;;;;;;;6.17;2.52;;;;;;;23.00;56.26;100976.08;1739465;82;21172;-49
2021/05/03 10:25:20;;;;;;;8.48;3.50;;;;;;;23.12;56.13;100974.40;1699616;84;21158;-47
2021/05/03 10:27:50;;;;;;;4.42;2.50;;;;;;;23.24;55.61;100964.23;1670047;84;21647;-50
2021/05/03 10:30:23;;;;;;;9.55;2.37;;;;;;;23.28;54.82;100967.05;1697805;84;21186;-50
2021/05/03 10:33:09;;;;;;;6.05;2.98;;;;;;;23.24;54.59;100976.19;1697321;84;21171;-48
2021/05/03 10:35:47;;;;;;;3.55;2.67;;;;;;;23.19;54.67;100996.89;1771723;79;22982;-45
2021/05/03 10:38:40;;;;;;;4.65;2.87;;;;;;;23.08;54.60;101001.61;1738660;82;21148;-49
2021/05/03 10:41:31;;;;;;;5.33;2.72;;;;;;;23.02;55.12;101015.31;1692452;84;21399;-46
2021/05/03 10:44:23;;;;;;;6.67;3.98;;;;;;;23.04;54.44;101005.94;1792273;79;28185;-45
2021/05/03 10:46:59;;;;;;;5.37;2.77;;;;;;;23.02;53.62;101001.22;1775156;80;21140;-46
2021/05/03 10:49:32;;;;;;;3.58;1.82;;;;;;;23.08;52.01;100994.16;1786600;80;21157;-45
2021/05/03 10:52:05;;;;;;;2.75;1.42;;;;;;;23.08;51.46;101003.44;1781499;80;21552;-49
2021/05/03 10:57:23;;;;;;;1.82;1.30;;;;;;;23.20;50.95;101045.06;1810135;79;23284;-47
2021/05/03 10:59:58;;;;;;;2.30;1.47;;;;;;;23.19;50.15;101046.00;1774512;80;21623;-46
2021/05/03 11:02:40;;;;;;;1.90;1.37;;;;;;;23.23;49.80;101043.50;1778588;80;21132;-50
2021/05/03 11:05:28;;;;;;;3.02;1.62;;;;;;;23.26;49.58;101026.05;1773687;80;21563;-46
2021/05/03 11:08:11;;;;;;;3.00;1.77;;;;;;;23.30;51.03;101031.52;1775717;80;21305;-49
2021/05/03 11:11:09;;;;;;;3.83;2.27;;;;;;;23.35;51.86;101026.74;1777728;80;21152;-46
2021/05/03 11:13:44;;;;;;;2.77;1.70;;;;;;;23.39;51.18;101040.17;1783131;80;21160;-49
2021/05/03 11:16:33;;;;;;;4.67;1.80;;;;;;;23.43;51.32;101040.36;1774812;80;21152;-53
2021/05/03 11:19:56;;;;;;;7.58;1.85;;;;;;;23.51;51.07;101024.73;1772289;80;21164;-49
2021/05/03 11:22:21;;;;;;;4.05;1.55;;;;;;;23.64;50.59;101030.84;1770996;80;21219;-52
2021/05/03 11:24:58;;;;;;;3.45;1.50;;;;;;;23.76;49.21;101029.97;1782488;80;21310;-50
2021/05/03 11:33:06;;;;;;;2.35;1.40;;;;;;;23.76;49.75;101017.18;1741200;82;21113;-45
2021/05/03 11:38:15;;;;;;;2.27;1.40;;;;;;;23.81;50.26;101009.70;1745336;82;21377;-48
2021/05/03 11:46:24;;;;;;;1.70;1.40;;;;;;;24.03;49.77;101014.70;1744709;81;21149;-48
2021/05/03 11:48:45;;;;;;;2.00;1.30;;;;;;;24.05;49.25;101024.75;1734992;82;21136;-47
2021/05/03 11:51:16;;;;;;;1.98;1.55;;;;;;;24.02;47.41;101035.59;1734348;82;21121;-46
2021/05/03 11:53:44;;;;;;;4.17;1.45;;;;;;;23.98;46.55;101039.44;1742225;82;21188;-46
2021/05/03 11:56:25;;;;;;;3.58;1.67;;;;;;;23.94;45.36;101052.58;1735466;82;21145;-47
2021/05/03 11:58:58;;;;;;;3.22;1.80;;;;;;;23.87;44.18;101051.78;1741272;82;21156;-45
2021/05/03 12:01:29;;;;;;;3.33;1.47;;;;;;;23.78;43.73;101047.97;1736349;81;21598;-49
2021/05/03 12:03:58;;;;;;;2.08;1.60;;;;;;;23.73;43.74;101041.30;1738590;81;21153;-46